Terminal Aerodrome Forecast
Issued by NWS

Home | Current Version | Previous Version | Text Only | Print | Product List | Glossary On
Versions: 1 2 3 4 5 6 7 8 9 10 11 12 13 14 15 16 17 18 19 20 21 22 23 24 25 26 27 28 29 30 31 32 33 34 35 36 37 38 39 40 41 42 43 44 45 46 47 48 49 50
000
FTUS45 KBOU 260700 AAA
TAFBJC
TAF AMD
KBJC 260700Z 2607/2706 09007KT P6SM VCSH SCT008 BKN012 OVC020
      TEMPO 2607/2610 5SM -SN BR BKN008
     FM261000 08010KT P6SM VCSH BKN011 OVC020
      TEMPO 2610/2613 5SM -SN BR BKN007
     FM261500 VRB05KT P6SM SCT015 SCT060
     FM261800 28009KT P6SM FEW060 SCT110=

USA.gov is the U.S. government's official web portal to all federal, state and local government web resources and services.